Check out our new PWSWeather beta!
PWSweather.com
Personal Weather Stations
Station Observations
PENICUIKWS
PenicuikGB

PenicuikGB

Lat: 55.830932, Lon: -3.224533000000065

Elevation: 166

Station Type: Fine Offset

http://weather.penicuik.org

High Low Average
Temperature 78.3°F25.7°C 49.3°F9.6°C 63.6°F17.6°C
Dew Point 60.2°F15.7°C 47.1°F8.4°C 53.9°F12.2°C
Winds 4.2 mph 6.8 kmh Calm Calm 1.0 mph SSW1.6 kmh SSW
Wind Gusts 6.9 mph11.1 kmh -- 3.0 mph4.8 kmh
Humidity 99% 40% 73%
Pressure 30.03 in1016.9 mb 29.89 in1012.2 mb -
Precipitation 0.06 in1.5 mm - -
Hour Temp Dew Point Humidity Winds Wind Gusts Pressure Precip Precip Rate Daily Precip Total
12:00 AM 60.3°F15.7°C 59.1°F15.1°C 96% Calm Calm -- 29.90 in1012.5 mb 0.00 in0.0 mm 0.00 in0.0 mm 0.00 in0.0 mm
12:15 AM 60.4°F15.8°C 59.3°F15.2°C 96% 0.1 mph SW0.2 kmh SW 0.7 mph1.1 kmh 29.90 in1012.5 mb 0.00 in0.0 mm 0.00 in0.0 mm 0.00 in0.0 mm
12:30 AM 60.4°F15.8°C 59.6°F15.3°C 97% 0.1 mph W0.2 kmh W 0.7 mph1.1 kmh 29.90 in1012.5 mb 0.00 in0.0 mm 0.00 in0.0 mm 0.00 in0.0 mm
12:45 AM 60.4°F15.8°C 59.6°F15.3°C 97% Calm Calm -- 29.89 in1012.2 mb 0.00 in0.0 mm 0.00 in0.0 mm 0.00 in0.0 mm
01:00 AM 60.4°F15.8°C 59.6°F15.3°C 97% 0.3 mph WSW0.5 kmh WSW 0.7 mph1.1 kmh 29.90 in1012.5 mb 0.00 in0.0 mm 0.00 in0.0 mm 0.00 in0.0 mm
01:15 AM 59.5°F15.3°C 58.7°F14.8°C 97% 1.0 mph W1.6 kmh W 3.1 mph5.0 kmh 29.90 in1012.5 mb 0.00 in0.0 mm 0.00 in0.0 mm 0.00 in0.0 mm
01:30 AM 59.2°F15.1°C 58.3°F14.6°C 97% 0.8 mph SW1.3 kmh SW 3.1 mph5.0 kmh 29.91 in1012.9 mb 0.00 in0.0 mm 0.00 in0.0 mm 0.00 in0.0 mm
01:45 AM 58.5°F14.7°C 57.9°F14.4°C 98% 0.8 mph SW1.3 kmh SW 3.1 mph5.0 kmh 29.90 in1012.5 mb 0.00 in0.0 mm 0.00 in0.0 mm 0.00 in0.0 mm
02:00 AM 57.9°F14.4°C 57.4°F14.1°C 98% 1.0 mph S1.6 kmh S 3.8 mph6.1 kmh 29.90 in1012.5 mb 0.02 in0.5 mm 0.03 in0.8 mm 0.02 in0.5 mm
02:15 AM 57.6°F14.2°C 56.7°F13.7°C 97% 1.0 mph SW1.6 kmh SW 1.6 mph2.6 kmh 29.91 in1012.9 mb 0.04 in1.0 mm 0.08 in2.0 mm 0.04 in1.0 mm
02:30 AM 57.4°F14.1°C 56.5°F13.6°C 97% 0.2 mph W0.3 kmh W 1.6 mph2.6 kmh 29.90 in1012.5 mb 0.04 in1.0 mm 0.00 in0.0 mm 0.04 in1.0 mm
02:45 AM 57.2°F14.0°C 56.4°F13.6°C 97% 0.4 mph S0.6 kmh S 2.2 mph3.5 kmh 29.90 in1012.5 mb 0.04 in1.0 mm 0.00 in0.0 mm 0.05 in1.3 mm
03:00 AM 56.8°F13.8°C 56.3°F13.5°C 98% 0.5 mph N0.8 kmh N 0.7 mph1.1 kmh 29.90 in1012.5 mb 0.02 in0.5 mm 0.00 in0.0 mm 0.05 in1.3 mm
03:15 AM 56.3°F13.5°C 55.8°F13.2°C 98% 0.6 mph NNW1.0 kmh NNW 1.6 mph2.6 kmh 29.90 in1012.5 mb 0.01 in0.3 mm 0.00 in0.0 mm 0.05 in1.3 mm
03:30 AM 56.1°F13.4°C 55.6°F13.1°C 98% 0.5 mph WNW0.8 kmh WNW 1.6 mph2.6 kmh 29.90 in1012.5 mb 0.01 in0.3 mm 0.00 in0.0 mm 0.05 in1.3 mm
03:45 AM 55.9°F13.3°C 55.4°F13.0°C 98% 0.5 mph WSW0.8 kmh WSW 1.6 mph2.6 kmh 29.90 in1012.5 mb 0.00 in0.0 mm 0.00 in0.0 mm 0.05 in1.3 mm
04:00 AM 55.8°F13.2°C 55.2°F12.9°C 98% 0.4 mph NW0.6 kmh NW 2.2 mph3.5 kmh 29.90 in1012.5 mb 0.00 in0.0 mm 0.00 in0.0 mm 0.05 in1.3 mm
04:15 AM 55.9°F13.3°C 55.4°F13.0°C 98% 0.4 mph NNW0.6 kmh NNW 1.6 mph2.6 kmh 29.91 in1012.9 mb 0.00 in0.0 mm 0.00 in0.0 mm 0.05 in1.3 mm
04:30 AM 55.9°F13.3°C 55.7°F13.2°C 99% 0.6 mph S1.0 kmh S 1.6 mph2.6 kmh 29.90 in1012.5 mb 0.00 in0.0 mm 0.00 in0.0 mm 0.05 in1.3 mm
04:45 AM 55.8°F13.2°C 55.2°F12.9°C 98% 0.3 mph NW0.5 kmh NW 1.6 mph2.6 kmh 29.91 in1012.9 mb 0.00 in0.0 mm 0.00 in0.0 mm 0.05 in1.3 mm
05:00 AM 55.4°F13.0°C 54.9°F12.7°C 98% 0.4 mph NW0.6 kmh NW 1.6 mph2.6 kmh 29.91 in1012.9 mb 0.00 in0.0 mm 0.00 in0.0 mm 0.05 in1.3 mm
05:15 AM 55.6°F13.1°C 55.3°F12.9°C 99% 0.2 mph NNW0.3 kmh NNW 0.7 mph1.1 kmh 29.91 in1012.9 mb 0.00 in0.0 mm 0.00 in0.0 mm 0.05 in1.3 mm
05:30 AM 56.8°F13.8°C 56.6°F13.7°C 99% 0.4 mph NE0.6 kmh NE 0.7 mph1.1 kmh 29.92 in1013.2 mb 0.00 in0.0 mm 0.00 in0.0 mm 0.05 in1.3 mm
05:45 AM 59.2°F15.1°C 58.3°F14.6°C 97% 0.4 mph NW0.6 kmh NW 1.6 mph2.6 kmh 29.91 in1012.9 mb 0.00 in0.0 mm 0.00 in0.0 mm 0.05 in1.3 mm
06:00 AM 60.6°F15.9°C 59.5°F15.3°C 96% 1.2 mph E1.9 kmh E 2.2 mph3.5 kmh 29.91 in1012.9 mb 0.00 in0.0 mm 0.00 in0.0 mm 0.05 in1.3 mm
06:15 AM 62.2°F16.8°C 60.2°F15.7°C 93% 1.0 mph SSE1.6 kmh SSE 1.6 mph2.6 kmh 29.93 in1013.5 mb 0.00 in0.0 mm 0.00 in0.0 mm 0.05 in1.3 mm
06:30 AM 63.9°F17.7°C 58.3°F14.6°C 82% 2.4 mph S3.9 kmh S 3.8 mph6.1 kmh 29.92 in1013.2 mb 0.00 in0.0 mm 0.00 in0.0 mm 0.05 in1.3 mm
06:45 AM 65.5°F18.6°C 57.4°F14.1°C 75% 2.8 mph SSE4.5 kmh SSE 4.5 mph7.2 kmh 29.92 in1013.2 mb 0.01 in0.3 mm 0.04 in1.0 mm 0.06 in1.5 mm
07:00 AM 68.4°F20.2°C 58.2°F14.6°C 70% 1.5 mph S2.4 kmh S 2.2 mph3.5 kmh 29.93 in1013.5 mb 0.01 in0.3 mm 0.00 in0.0 mm 0.06 in1.5 mm
07:15 AM 70.0°F21.1°C 57.7°F14.3°C 65% 1.9 mph SW3.1 kmh SW 2.2 mph3.5 kmh 29.92 in1013.2 mb 0.01 in0.3 mm 0.00 in0.0 mm 0.06 in1.5 mm
07:30 AM 70.0°F21.1°C 58.1°F14.5°C 66% 2.6 mph WSW4.2 kmh WSW 3.8 mph6.1 kmh 29.93 in1013.5 mb 0.01 in0.3 mm 0.00 in0.0 mm 0.06 in1.5 mm
07:45 AM 70.9°F21.6°C 57.2°F14.0°C 62% 1.7 mph SE2.7 kmh SE 3.1 mph5.0 kmh 29.93 in1013.5 mb 0.00 in0.0 mm 0.00 in0.0 mm 0.06 in1.5 mm
08:00 AM 66.4°F19.1°C 55.9°F13.3°C 69% 0.7 mph SSE1.1 kmh SSE 2.2 mph3.5 kmh 29.93 in1013.5 mb 0.00 in0.0 mm 0.00 in0.0 mm 0.06 in1.5 mm
08:15 AM 70.0°F21.1°C 58.5°F14.7°C 67% 1.4 mph SW2.3 kmh SW 2.2 mph3.5 kmh 29.93 in1013.5 mb 0.00 in0.0 mm 0.00 in0.0 mm 0.06 in1.5 mm
08:30 AM 67.8°F19.9°C 55.2°F12.9°C 64% 1.9 mph SW3.1 kmh SW 3.8 mph6.1 kmh 29.94 in1013.9 mb 0.00 in0.0 mm 0.00 in0.0 mm 0.06 in1.5 mm
08:45 AM 65.3°F18.5°C 54.9°F12.7°C 69% 1.8 mph SW2.9 kmh SW 3.1 mph5.0 kmh 29.94 in1013.9 mb 0.00 in0.0 mm 0.00 in0.0 mm 0.06 in1.5 mm
09:00 AM 64.9°F18.3°C 56.1°F13.4°C 73% 1.9 mph NE3.1 kmh NE 3.1 mph5.0 kmh 29.93 in1013.5 mb 0.00 in0.0 mm 0.00 in0.0 mm 0.06 in1.5 mm
09:15 AM 68.0°F20.0°C 56.7°F13.7°C 67% 1.5 mph WSW2.4 kmh WSW 2.2 mph3.5 kmh 29.94 in1013.9 mb 0.00 in0.0 mm 0.00 in0.0 mm 0.06 in1.5 mm
09:30 AM 66.6°F19.2°C 55.3°F12.9°C 67% 1.2 mph SW1.9 kmh SW 3.1 mph5.0 kmh 29.94 in1013.9 mb 0.00 in0.0 mm 0.00 in0.0 mm 0.06 in1.5 mm
09:45 AM 68.0°F20.0°C 55.0°F12.8°C 63% 1.9 mph S3.1 kmh S 3.1 mph5.0 kmh 29.93 in1013.5 mb 0.00 in0.0 mm 0.00 in0.0 mm 0.06 in1.5 mm
10:00 AM 69.6°F20.9°C 55.6°F13.1°C 61% 1.9 mph NE3.1 kmh NE 2.2 mph3.5 kmh 29.93 in1013.5 mb 0.00 in0.0 mm 0.00 in0.0 mm 0.06 in1.5 mm
10:15 AM 68.0°F20.0°C 57.1°F13.9°C 68% 1.8 mph NNE2.9 kmh NNE 2.2 mph3.5 kmh 29.93 in1013.5 mb 0.00 in0.0 mm 0.00 in0.0 mm 0.06 in1.5 mm
10:30 AM 70.9°F21.6°C 56.3°F13.5°C 60% 2.5 mph NE4.0 kmh NE 3.8 mph6.1 kmh 29.94 in1013.9 mb 0.00 in0.0 mm 0.00 in0.0 mm 0.06 in1.5 mm
10:45 AM 70.9°F21.6°C 55.9°F13.3°C 59% 1.9 mph SW3.1 kmh SW 2.2 mph3.5 kmh 29.94 in1013.9 mb 0.00 in0.0 mm 0.00 in0.0 mm 0.06 in1.5 mm
11:00 AM 70.7°F21.5°C 54.3°F12.4°C 56% 2.3 mph WSW3.7 kmh WSW 3.8 mph6.1 kmh 29.94 in1013.9 mb 0.00 in0.0 mm 0.00 in0.0 mm 0.06 in1.5 mm
11:15 AM 70.9°F21.6°C 54.9°F12.7°C 57% 2.7 mph WNW4.3 kmh WNW 4.5 mph7.2 kmh 29.94 in1013.9 mb 0.00 in0.0 mm 0.00 in0.0 mm 0.06 in1.5 mm
11:30 AM 68.9°F20.5°C 54.5°F12.5°C 60% 2.1 mph NW3.4 kmh NW 3.8 mph6.1 kmh 29.94 in1013.9 mb 0.00 in0.0 mm 0.00 in0.0 mm 0.06 in1.5 mm
11:45 AM 70.0°F21.1°C 55.0°F12.8°C 59% 2.4 mph S3.9 kmh S 5.4 mph8.7 kmh 29.94 in1013.9 mb 0.00 in0.0 mm 0.00 in0.0 mm 0.06 in1.5 mm
12:00 PM 72.9°F22.7°C 54.8°F12.7°C 53% 2.4 mph SE3.9 kmh SE 3.1 mph5.0 kmh 29.95 in1014.2 mb 0.00 in0.0 mm 0.00 in0.0 mm 0.06 in1.5 mm
12:15 PM 74.1°F23.4°C 54.3°F12.4°C 50% 2.5 mph S4.0 kmh S 5.4 mph8.7 kmh 29.94 in1013.9 mb 0.00 in0.0 mm 0.00 in0.0 mm 0.06 in1.5 mm
12:30 PM 72.7°F22.6°C 53.5°F11.9°C 51% 2.2 mph S3.5 kmh S 3.8 mph6.1 kmh 29.95 in1014.2 mb 0.00 in0.0 mm 0.00 in0.0 mm 0.06 in1.5 mm
12:45 PM 69.8°F21.0°C 52.4°F11.3°C 54% 3.2 mph S5.1 kmh S 5.4 mph8.7 kmh 29.95 in1014.2 mb 0.00 in0.0 mm 0.00 in0.0 mm 0.06 in1.5 mm
01:00 PM 70.9°F21.6°C 52.9°F11.6°C 53% 3.3 mph SSW5.3 kmh SSW 5.4 mph8.7 kmh 29.94 in1013.9 mb 0.00 in0.0 mm 0.00 in0.0 mm 0.06 in1.5 mm
01:15 PM 70.9°F21.6°C 52.4°F11.3°C 52% 2.8 mph S4.5 kmh S 4.5 mph7.2 kmh 29.94 in1013.9 mb 0.00 in0.0 mm 0.00 in0.0 mm 0.06 in1.5 mm
01:30 PM 70.9°F21.6°C 51.9°F11.1°C 51% 4.2 mph W6.8 kmh W 6.0 mph9.7 kmh 29.94 in1013.9 mb 0.00 in0.0 mm 0.00 in0.0 mm 0.06 in1.5 mm
01:45 PM 72.3°F22.4°C 53.2°F11.8°C 51% 3.5 mph NNE5.6 kmh NNE 6.0 mph9.7 kmh 29.95 in1014.2 mb 0.00 in0.0 mm 0.00 in0.0 mm 0.06 in1.5 mm
02:00 PM 75.4°F24.1°C 52.6°F11.4°C 45% 3.2 mph W5.1 kmh W 5.4 mph8.7 kmh 29.95 in1014.2 mb 0.00 in0.0 mm 0.00 in0.0 mm 0.06 in1.5 mm
02:15 PM 75.4°F24.1°C 52.0°F11.1°C 44% 3.8 mph SE6.1 kmh SE 5.4 mph8.7 kmh 29.94 in1013.9 mb 0.00 in0.0 mm 0.00 in0.0 mm 0.06 in1.5 mm
02:30 PM 71.1°F21.7°C 51.5°F10.8°C 50% 2.8 mph W4.5 kmh W 4.5 mph7.2 kmh 29.94 in1013.9 mb 0.00 in0.0 mm 0.00 in0.0 mm 0.06 in1.5 mm
02:45 PM 74.8°F23.8°C 52.7°F11.5°C 46% 2.9 mph N4.7 kmh N 5.4 mph8.7 kmh 29.94 in1013.9 mb 0.00 in0.0 mm 0.00 in0.0 mm 0.06 in1.5 mm
03:00 PM 77.0°F25.0°C 50.9°F10.5°C 40% 2.8 mph S4.5 kmh S 5.4 mph8.7 kmh 29.95 in1014.2 mb 0.00 in0.0 mm 0.00 in0.0 mm 0.06 in1.5 mm
03:15 PM 78.3°F25.7°C 52.7°F11.5°C 41% 2.8 mph WSW4.5 kmh WSW 6.0 mph9.7 kmh 29.94 in1013.9 mb 0.00 in0.0 mm 0.00 in0.0 mm 0.06 in1.5 mm
03:30 PM 73.2°F22.9°C 52.4°F11.3°C 48% 3.0 mph SE4.8 kmh SE 6.0 mph9.7 kmh 29.94 in1013.9 mb 0.00 in0.0 mm 0.00 in0.0 mm 0.06 in1.5 mm
03:45 PM 70.3°F21.3°C 51.9°F11.1°C 52% 2.8 mph SW4.5 kmh SW 4.5 mph7.2 kmh 29.94 in1013.9 mb 0.00 in0.0 mm 0.00 in0.0 mm 0.06 in1.5 mm
04:00 PM 69.3°F20.7°C 52.4°F11.3°C 55% 3.2 mph S5.1 kmh S 5.4 mph8.7 kmh 29.95 in1014.2 mb 0.00 in0.0 mm 0.00 in0.0 mm 0.06 in1.5 mm
04:15 PM 69.4°F20.8°C 53.6°F12.0°C 57% 2.7 mph SW4.3 kmh SW 4.5 mph7.2 kmh 29.95 in1014.2 mb 0.00 in0.0 mm 0.00 in0.0 mm 0.06 in1.5 mm
04:30 PM 70.5°F21.4°C 53.1°F11.7°C 54% 2.1 mph S3.4 kmh S 2.2 mph3.5 kmh 29.95 in1014.2 mb 0.00 in0.0 mm 0.00 in0.0 mm 0.06 in1.5 mm
04:45 PM 69.6°F20.9°C 53.7°F12.1°C 57% 1.6 mph NW2.6 kmh NW 3.8 mph6.1 kmh 29.96 in1014.6 mb 0.00 in0.0 mm 0.00 in0.0 mm 0.06 in1.5 mm
05:00 PM 69.3°F20.7°C 53.4°F11.9°C 57% 1.9 mph NNE3.1 kmh NNE 3.1 mph5.0 kmh 29.96 in1014.6 mb 0.00 in0.0 mm 0.00 in0.0 mm 0.06 in1.5 mm
05:15 PM 68.4°F20.2°C 52.6°F11.4°C 57% 2.2 mph SE3.5 kmh SE 3.8 mph6.1 kmh 29.96 in1014.6 mb 0.00 in0.0 mm 0.00 in0.0 mm 0.06 in1.5 mm
05:30 PM 66.9°F19.4°C 51.7°F10.9°C 58% 3.2 mph SW5.1 kmh SW 5.4 mph8.7 kmh 29.95 in1014.2 mb 0.00 in0.0 mm 0.00 in0.0 mm 0.06 in1.5 mm
05:45 PM 66.7°F19.3°C 51.5°F10.8°C 58% 2.1 mph WNW3.4 kmh WNW 5.4 mph8.7 kmh 29.96 in1014.6 mb 0.00 in0.0 mm 0.00 in0.0 mm 0.06 in1.5 mm
06:00 PM 66.7°F19.3°C 52.0°F11.1°C 59% 1.6 mph N2.6 kmh N 2.2 mph3.5 kmh 29.96 in1014.6 mb 0.00 in0.0 mm 0.00 in0.0 mm 0.06 in1.5 mm
06:15 PM 66.4°F19.1°C 51.2°F10.7°C 58% 1.6 mph SSW2.6 kmh SSW 2.2 mph3.5 kmh 29.96 in1014.6 mb 0.00 in0.0 mm 0.00 in0.0 mm 0.06 in1.5 mm
06:30 PM 65.8°F18.8°C 50.7°F10.4°C 58% 2.3 mph SSW3.7 kmh SSW 6.9 mph11.1 kmh 29.96 in1014.6 mb 0.00 in0.0 mm 0.00 in0.0 mm 0.06 in1.5 mm
06:45 PM 65.7°F18.7°C 51.4°F10.8°C 60% 1.8 mph WSW2.9 kmh WSW 3.8 mph6.1 kmh 29.96 in1014.6 mb 0.00 in0.0 mm 0.00 in0.0 mm 0.06 in1.5 mm
07:00 PM 64.0°F17.8°C 49.9°F9.9°C 60% 2.8 mph W4.5 kmh W 4.5 mph7.2 kmh 29.97 in1014.9 mb 0.00 in0.0 mm 0.00 in0.0 mm 0.06 in1.5 mm
07:15 PM 63.3°F17.4°C 49.7°F9.8°C 61% 1.2 mph WSW1.9 kmh WSW 2.2 mph3.5 kmh 29.98 in1015.2 mb 0.00 in0.0 mm 0.00 in0.0 mm 0.06 in1.5 mm
07:30 PM 62.8°F17.1°C 50.4°F10.2°C 64% 1.2 mph SSW1.9 kmh SSW 2.2 mph3.5 kmh 29.98 in1015.2 mb 0.00 in0.0 mm 0.00 in0.0 mm 0.06 in1.5 mm
07:45 PM 62.6°F17.0°C 49.8°F9.9°C 63% 0.6 mph W1.0 kmh W 1.6 mph2.6 kmh 29.98 in1015.2 mb 0.00 in0.0 mm 0.00 in0.0 mm 0.06 in1.5 mm
08:00 PM 61.9°F16.6°C 50.4°F10.2°C 66% 0.7 mph S1.1 kmh S 1.6 mph2.6 kmh 29.99 in1015.6 mb 0.00 in0.0 mm 0.00 in0.0 mm 0.06 in1.5 mm
08:15 PM 60.4°F15.8°C 50.2°F10.1°C 69% 0.4 mph S0.6 kmh S 1.6 mph2.6 kmh 30.00 in1015.9 mb 0.00 in0.0 mm 0.00 in0.0 mm 0.06 in1.5 mm
08:30 PM 58.5°F14.7°C 49.8°F9.9°C 73% 0.1 mph W0.2 kmh W 0.7 mph1.1 kmh 29.99 in1015.6 mb 0.00 in0.0 mm 0.00 in0.0 mm 0.06 in1.5 mm
08:45 PM 57.2°F14.0°C 49.4°F9.7°C 75% 0.4 mph SW0.6 kmh SW 0.7 mph1.1 kmh 30.00 in1015.9 mb 0.00 in0.0 mm 0.00 in0.0 mm 0.06 in1.5 mm
09:00 PM 55.4°F13.0°C 49.0°F9.4°C 79% Calm Calm -- 30.01 in1016.3 mb 0.00 in0.0 mm 0.00 in0.0 mm 0.06 in1.5 mm
09:15 PM 54.1°F12.3°C 48.4°F9.1°C 81% 0.2 mph NW0.3 kmh NW 0.7 mph1.1 kmh 30.01 in1016.3 mb 0.00 in0.0 mm 0.00 in0.0 mm 0.06 in1.5 mm
09:30 PM 53.4°F11.9°C 48.4°F9.1°C 83% 0.1 mph SE0.2 kmh SE 0.7 mph1.1 kmh 30.01 in1016.3 mb 0.00 in0.0 mm 0.00 in0.0 mm 0.06 in1.5 mm
09:45 PM 52.3°F11.3°C 47.7°F8.7°C 84% 0.2 mph ESE0.3 kmh ESE 0.7 mph1.1 kmh 30.01 in1016.3 mb 0.00 in0.0 mm 0.00 in0.0 mm 0.06 in1.5 mm
10:00 PM 51.4°F10.8°C 47.7°F8.7°C 87% 0.2 mph WSW0.3 kmh WSW 0.7 mph1.1 kmh 30.01 in1016.3 mb 0.00 in0.0 mm 0.00 in0.0 mm 0.06 in1.5 mm
10:15 PM 51.1°F10.6°C 48.0°F8.9°C 89% Calm Calm -- 30.02 in1016.6 mb 0.00 in0.0 mm 0.00 in0.0 mm 0.06 in1.5 mm
10:30 PM 50.7°F10.4°C 47.9°F8.8°C 90% 0.5 mph NW0.8 kmh NW 0.7 mph1.1 kmh 30.02 in1016.6 mb 0.00 in0.0 mm 0.00 in0.0 mm 0.06 in1.5 mm
10:45 PM 50.0°F10.0°C 47.2°F8.4°C 90% Calm Calm -- 30.02 in1016.6 mb 0.00 in0.0 mm 0.00 in0.0 mm 0.06 in1.5 mm
11:00 PM 49.8°F9.9°C 47.6°F8.7°C 92% 1.0 mph NW1.6 kmh NW 2.2 mph3.5 kmh 30.02 in1016.6 mb 0.00 in0.0 mm 0.00 in0.0 mm 0.05 in1.3 mm
11:15 PM 49.3°F9.6°C 47.1°F8.4°C 92% 0.3 mph SW0.5 kmh SW 0.7 mph1.1 kmh 30.03 in1016.9 mb 0.00 in0.0 mm 0.00 in0.0 mm 0.05 in1.3 mm
11:30 PM 49.6°F9.8°C 47.7°F8.7°C 93% 0.5 mph WNW0.8 kmh WNW 1.6 mph2.6 kmh 30.03 in1016.9 mb 0.00 in0.0 mm 0.00 in0.0 mm 0.05 in1.3 mm
11:45 PM 49.6°F9.8°C 48.0°F8.9°C 94% 0.2 mph NW0.3 kmh NW 0.7 mph1.1 kmh 30.02 in1016.6 mb 0.00 in0.0 mm 0.00 in0.0 mm 0.05 in1.3 mm